Main page
METAR-TAF:

METAR-TAF

Airports :

Kristiansund Airport. Kvernberget

Kristiansund, Norway

latitude: 63-07N, longitude: 007-50E, elevation: 6 m

Current weather observation

The report was made 44 minutes ago, at 03:50 UTC
Wind 3 kt from variable directions
Temperature 12°C
Humidity 62%
Pressure 1017 hPa
Visibility 10 km or more
no clouds below 1500 m and no cumulonimbus

METAR: ENKB 240350Z VRB03KT CAVOK 12/05 Q1017 RMK WIND 745FT 18008KT

Time: 06:34 (04:34 UTC)

Forecast

The report was made 2 hours and 34 minutes ago, at 02:00 UTC
Forecast valid from 24 at 03 UTC to 24 at 12 UTC
Wind 8 kt from the West/Southwest
Visibility 10 km or more
no clouds below 1500 m and no cumulonimbus

TAF: ENKB 240200Z 2403/2412 24008KT CAVOK

Weather observations and forecasts of more than 4000 airports (METAR and TAF reports).

The available stations are represented by yellow and red dots on the map.

Hover mouse over dot to see the name of the station.

Then click to see weather observations and forecasts.

To change the map : click on the green buttons with a black cross to zoom in, on the green button with a dash to zoom out, or on the green arrows for adjacent maps.


METAR-TAF: